createdAt,value
2023-02-14T00:00:51.086Z,4.32
2023-02-14T00:03:17.830Z,4.41
2023-02-14T00:05:44.484Z,4.35
2023-02-14T00:08:11.454Z,4.34
2023-02-14T00:10:38.181Z,4.27
2023-02-14T00:13:05.252Z,4.33
2023-02-14T00:15:31.975Z,4.31
2023-02-14T00:18:02.131Z,4.36
2023-02-14T00:20:29.132Z,4.24
2023-02-14T00:22:55.833Z,4.20
2023-02-14T00:25:23.003Z,4.24
2023-02-14T00:27:49.684Z,4.28
2023-02-14T00:30:16.448Z,4.29
2023-02-14T00:32:43.560Z,4.26
2023-02-14T00:35:10.859Z,4.27
2023-02-14T00:41:59.102Z,4.25
2023-02-14T00:44:25.836Z,4.29
2023-02-14T00:46:52.634Z,4.00
2023-02-14T00:49:19.435Z,4.06
2023-02-14T00:51:46.246Z,4.01
2023-02-14T00:54:13.017Z,4.08
2023-02-14T00:56:39.791Z,4.17
2023-02-14T00:59:09.127Z,4.10
2023-02-14T01:01:35.901Z,4.21
2023-02-14T01:04:03.496Z,4.15
2023-02-14T01:06:30.397Z,4.07
2023-02-14T01:08:57.497Z,4.04
2023-02-14T01:11:25.268Z,4.17
2023-02-14T01:13:55.255Z,4.13
2023-02-14T01:19:09.366Z,4.12
2023-02-14T01:43:52.216Z,3.97
2023-02-14T01:46:18.966Z,3.97
2023-02-14T01:48:46.448Z,3.93
2023-02-14T01:51:14.297Z,4.13
2023-02-14T01:53:41.021Z,4.12
2023-02-14T01:56:11.717Z,4.10
2023-02-14T01:58:40.959Z,4.08
2023-02-14T02:01:08.757Z,4.20
2023-02-14T02:03:44.940Z,4.13
2023-02-14T02:06:15.828Z,3.95
2023-02-14T02:08:54.546Z,3.99
2023-02-14T02:11:21.552Z,3.96
2023-02-14T02:13:48.400Z,4.02
2023-02-14T02:16:30.128Z,3.92
2023-02-14T02:19:02.338Z,3.82
2023-02-14T02:21:41.155Z,3.83
2023-02-14T02:24:21.783Z,3.85
2023-02-14T02:27:14.235Z,3.81
2023-02-14T02:30:02.597Z,3.81
2023-02-14T02:32:52.675Z,3.76
2023-02-14T02:35:37.646Z,3.76
2023-02-14T02:38:38.756Z,3.82
2023-02-14T02:41:44.381Z,3.84
2023-02-14T02:44:41.468Z,3.85
2023-02-14T02:47:16.832Z,3.91
2023-02-14T02:50:27.872Z,3.81
2023-02-14T02:53:17.029Z,3.76
2023-02-14T02:56:03.885Z,3.84
2023-02-14T02:58:39.876Z,3.66
2023-02-14T03:01:14.172Z,3.80
2023-02-14T03:03:59.998Z,3.56
2023-02-14T03:06:26.845Z,3.76
2023-02-14T03:08:53.518Z,3.69
2023-02-14T03:11:20.405Z,3.90
2023-02-14T03:14:12.637Z,3.72
2023-02-14T03:16:59.646Z,3.65
2023-02-14T03:19:59.170Z,3.53
2023-02-14T03:22:31.831Z,3.74
2023-02-14T03:25:16.581Z,3.66
2023-02-14T03:27:48.654Z,3.63
2023-02-14T03:30:40.543Z,3.72
2023-02-14T03:33:21.447Z,3.69
2023-02-14T03:36:07.094Z,3.58
2023-02-14T03:38:55.402Z,3.69
2023-02-14T03:41:26.257Z,3.85
2023-02-14T03:43:56.778Z,3.73
2023-02-14T03:46:53.764Z,3.66
2023-02-14T03:49:24.281Z,3.75
2023-02-14T03:51:52.848Z,3.79
2023-02-14T03:54:20.332Z,3.77
2023-02-14T03:56:50.400Z,3.56
2023-02-14T03:59:21.142Z,3.61
2023-02-14T04:01:50.810Z,3.65
2023-02-14T04:04:21.132Z,3.66
2023-02-14T04:06:48.000Z,3.65
2023-02-14T04:09:14.685Z,3.69
2023-02-14T04:11:41.435Z,3.66
2023-02-14T04:14:08.420Z,3.84
2023-02-14T04:16:55.452Z,3.68
2023-02-14T04:19:24.865Z,3.55
2023-02-14T04:21:52.302Z,3.65
2023-02-14T04:24:19.845Z,3.74
2023-02-14T04:27:09.929Z,3.62
2023-02-14T04:29:44.855Z,3.56
2023-02-14T04:32:14.001Z,3.46
2023-02-14T04:34:40.892Z,3.53
2023-02-14T04:37:07.997Z,3.54
2023-02-14T04:39:35.200Z,3.58
2023-02-14T04:42:02.454Z,3.53
2023-02-14T04:44:29.250Z,3.58
2023-02-14T04:46:56.091Z,3.55
2023-02-14T04:49:22.936Z,3.53
2023-02-14T04:51:49.743Z,3.50
2023-02-14T04:54:16.508Z,3.44
2023-02-14T04:56:43.214Z,3.38
2023-02-14T04:59:10.087Z,3.40
2023-02-14T05:01:37.057Z,3.46
2023-02-14T05:04:03.740Z,3.50
2023-02-14T05:06:30.478Z,3.48
2023-02-14T05:08:57.308Z,3.50
2023-02-14T05:11:24.008Z,3.54
2023-02-14T05:13:50.756Z,3.62
2023-02-14T05:16:17.614Z,3.54
2023-02-14T05:18:44.509Z,3.61
2023-02-14T05:21:11.554Z,3.57
2023-02-14T05:23:38.450Z,3.62
2023-02-14T05:26:05.215Z,3.57
2023-02-14T05:28:32.159Z,3.62
2023-02-14T05:30:59.429Z,3.63
2023-02-14T05:33:26.841Z,3.61
2023-02-14T05:35:53.622Z,3.40
2023-02-14T05:38:20.378Z,3.51
2023-02-14T05:40:47.180Z,3.43
2023-02-14T05:43:13.922Z,3.43
2023-02-14T05:45:40.702Z,3.41
2023-02-14T05:48:07.485Z,3.42
2023-02-14T05:50:34.229Z,3.50
2023-02-14T05:53:01.365Z,3.37
2023-02-14T05:55:28.148Z,3.45
2023-02-14T05:57:54.872Z,3.48
2023-02-14T06:00:22.718Z,3.42
2023-02-14T06:02:49.409Z,3.41
2023-02-14T06:05:18.173Z,3.48
2023-02-14T06:07:50.478Z,3.43
2023-02-14T06:10:18.455Z,3.47
2023-02-14T06:12:45.750Z,3.42
2023-02-14T06:15:12.516Z,3.42
2023-02-14T06:17:39.215Z,3.43
2023-02-14T06:20:06.869Z,3.41
2023-02-14T06:22:33.557Z,3.42
2023-02-14T06:25:00.268Z,3.47
2023-02-14T06:27:28.403Z,3.43
2023-02-14T06:29:55.190Z,3.62
2023-02-14T06:32:21.999Z,3.40
2023-02-14T06:34:48.721Z,3.52
2023-02-14T06:37:15.598Z,3.41
2023-02-14T06:39:42.380Z,3.48
2023-02-14T06:42:09.277Z,3.52
2023-02-14T06:44:35.951Z,3.41
2023-02-14T06:47:02.786Z,3.48
2023-02-14T06:49:29.591Z,3.38
2023-02-14T06:51:56.388Z,3.45
2023-02-14T06:54:23.036Z,3.34
2023-02-14T06:56:49.843Z,3.34
2023-02-14T06:59:16.737Z,3.25
2023-02-14T07:01:43.524Z,3.46
2023-02-14T07:04:10.328Z,3.32
2023-02-14T07:06:37.357Z,3.42
2023-02-14T07:09:05.016Z,3.39
2023-02-14T07:11:31.937Z,3.31
2023-02-14T07:13:58.718Z,3.28
2023-02-14T07:16:25.840Z,3.26
2023-02-14T07:18:52.590Z,3.20
2023-02-14T07:21:19.311Z,3.18
2023-02-14T07:23:47.661Z,3.23
2023-02-14T07:26:18.009Z,3.20
2023-02-14T07:28:45.635Z,3.15
2023-02-14T07:31:12.850Z,3.21
2023-02-14T07:33:39.766Z,3.25
2023-02-14T07:36:07.842Z,3.23
2023-02-14T07:38:35.564Z,3.30
2023-02-14T07:41:02.617Z,3.23
2023-02-14T07:43:29.331Z,3.20
2023-02-14T07:45:56.058Z,3.14
2023-02-14T07:48:22.842Z,3.23
2023-02-14T07:50:49.590Z,3.19
2023-02-14T07:53:16.384Z,3.18
2023-02-14T07:55:43.091Z,3.24
2023-02-14T07:58:09.832Z,3.14
2023-02-14T08:00:36.533Z,3.01
2023-02-14T08:03:03.258Z,3.07
2023-02-14T08:05:30.060Z,3.11
2023-02-14T08:07:56.836Z,3.13
2023-02-14T08:10:23.540Z,3.12
2023-02-14T08:12:59.530Z,3.11
2023-02-14T08:15:50.413Z,3.15
2023-02-14T08:18:18.319Z,3.18
2023-02-14T08:20:49.710Z,3.22
2023-02-14T08:23:17.858Z,3.24
2023-02-14T08:25:44.507Z,3.25
2023-02-14T08:28:13.148Z,3.30
2023-02-14T08:30:40.037Z,3.34
2023-02-14T08:33:07.276Z,3.34
2023-02-14T08:35:34.742Z,3.35
2023-02-14T08:38:01.481Z,3.34
2023-02-14T08:40:28.623Z,3.33
2023-02-14T08:42:55.340Z,3.41
2023-02-14T08:45:22.435Z,3.39
2023-02-14T08:47:49.197Z,3.41
2023-02-14T08:50:17.327Z,3.36
2023-02-14T08:52:44.304Z,3.35
2023-02-14T08:55:12.706Z,3.30
2023-02-14T08:57:39.921Z,3.40
2023-02-14T09:00:07.821Z,3.36
2023-02-14T09:02:34.654Z,3.41
2023-02-14T09:05:01.425Z,3.40
2023-02-14T09:07:28.234Z,3.44
2023-02-14T09:09:55.068Z,3.41
2023-02-14T09:12:21.944Z,3.34
2023-02-14T09:14:48.600Z,3.30
2023-02-14T09:17:16.568Z,3.38
2023-02-14T09:19:43.524Z,3.31
2023-02-14T09:22:11.237Z,3.29
2023-02-14T09:24:39.219Z,3.28
2023-02-14T09:27:06.149Z,3.24
2023-02-14T09:29:33.683Z,3.29
2023-02-14T09:32:01.395Z,3.26
2023-02-14T09:34:28.768Z,3.28
2023-02-14T09:36:55.475Z,3.29
2023-02-14T09:39:22.382Z,3.34
2023-02-14T09:42:03.774Z,3.27
2023-02-14T09:44:37.431Z,3.35
2023-02-14T09:47:12.826Z,3.36
2023-02-14T09:49:40.088Z,3.39
2023-02-14T09:52:11.042Z,3.41
2023-02-14T09:54:38.152Z,3.46
2023-02-14T09:57:15.263Z,3.42
2023-02-14T09:59:49.369Z,3.49
2023-02-14T10:02:38.062Z,3.45
2023-02-14T10:05:22.124Z,3.47
2023-02-14T10:08:00.516Z,3.37
2023-02-14T10:10:45.150Z,3.39
2023-02-14T10:13:32.169Z,3.34
2023-02-14T10:16:08.369Z,3.45
2023-02-14T10:18:45.797Z,3.38
2023-02-14T10:21:20.834Z,3.40
2023-02-14T10:24:02.064Z,3.45
2023-02-14T10:26:41.273Z,3.56
2023-02-14T10:29:14.279Z,3.61
2023-02-14T10:31:55.675Z,3.65
2023-02-14T10:34:38.548Z,3.72
2023-02-14T10:37:48.273Z,3.75
2023-02-14T10:40:39.666Z,3.75
2023-02-14T10:43:27.888Z,3.79
2023-02-14T10:46:18.236Z,3.90
2023-02-14T10:49:08.424Z,3.91
2023-02-14T10:51:50.722Z,3.96
2023-02-14T10:54:38.898Z,3.96
2023-02-14T10:57:22.617Z,3.87
2023-02-14T11:00:11.103Z,3.77
2023-02-14T11:02:41.716Z,3.80
2023-02-14T11:05:35.918Z,3.77
2023-02-14T11:08:06.744Z,3.64
2023-02-14T11:10:35.659Z,3.49
2023-02-14T11:13:02.398Z,3.50
2023-02-14T11:15:32.635Z,3.46
2023-02-14T11:18:10.453Z,3.52
2023-02-14T11:20:37.218Z,3.54
2023-02-14T11:23:18.929Z,3.44
2023-02-14T11:25:50.636Z,3.52
2023-02-14T11:28:19.429Z,3.56
2023-02-14T11:30:47.818Z,3.50
2023-02-14T11:33:33.188Z,3.57
2023-02-14T11:36:01.023Z,3.66
2023-02-14T11:38:30.481Z,3.72
2023-02-14T11:40:58.726Z,3.79
2023-02-14T11:43:34.387Z,3.85
2023-02-14T11:46:24.777Z,3.81
2023-02-14T11:49:07.179Z,3.76
2023-02-14T11:51:40.571Z,3.77
2023-02-14T11:54:13.230Z,3.80
2023-02-14T11:56:54.398Z,3.78
2023-02-14T11:59:42.539Z,3.67
2023-02-14T12:02:18.103Z,3.72
2023-02-14T12:04:46.720Z,3.66
2023-02-14T12:07:18.728Z,3.65
2023-02-14T12:09:47.187Z,3.68
2023-02-14T12:12:23.322Z,3.68
2023-02-14T12:14:50.351Z,3.66
2023-02-14T12:17:37.618Z,3.64
2023-02-14T12:20:14.482Z,3.69
2023-02-14T12:22:50.366Z,3.68
2023-02-14T12:25:22.728Z,3.63
2023-02-14T12:27:57.123Z,3.58
2023-02-14T12:30:25.526Z,3.67
2023-02-14T12:32:54.143Z,3.56
2023-02-14T12:35:45.031Z,3.54
2023-02-14T12:38:20.660Z,3.66
2023-02-14T12:41:16.191Z,3.64
2023-02-14T12:43:50.792Z,3.67
2023-02-14T12:46:35.954Z,3.60
2023-02-14T12:49:33.155Z,3.59
2023-02-14T12:52:08.345Z,3.56
2023-02-14T12:54:43.759Z,3.68
2023-02-14T12:57:40.460Z,3.70
2023-02-14T13:00:09.810Z,3.77
2023-02-14T13:03:10.244Z,3.73
2023-02-14T13:05:50.754Z,3.85
2023-02-14T13:08:29.981Z,3.83
2023-02-14T13:11:21.707Z,3.68
2023-02-14T13:13:53.263Z,3.76
2023-02-14T13:16:40.692Z,3.83
2023-02-14T13:19:23.544Z,3.80
2023-02-14T13:21:50.760Z,3.83
2023-02-14T13:24:29.558Z,3.89
2023-02-14T13:26:59.880Z,4.03
2023-02-14T13:29:37.231Z,4.01
2023-02-14T13:32:04.640Z,3.97
2023-02-14T13:34:34.933Z,3.90
2023-02-14T13:37:04.093Z,4.03
2023-02-14T13:39:41.446Z,4.02
2023-02-14T13:42:08.682Z,3.95
2023-02-14T13:44:49.330Z,4.07
2023-02-14T13:47:23.582Z,4.05
2023-02-14T13:49:51.633Z,4.10
2023-02-14T13:52:45.188Z,4.11
2023-02-14T13:55:34.776Z,4.05
2023-02-14T13:58:07.263Z,4.04
2023-02-14T14:00:42.879Z,4.09
2023-02-14T14:03:27.245Z,4.07
2023-02-14T14:06:00.714Z,4.04
2023-02-14T14:08:29.282Z,4.02
2023-02-14T14:11:01.469Z,4.09
2023-02-14T14:13:40.169Z,4.03
2023-02-14T14:16:21.338Z,4.02
2023-02-14T14:18:48.466Z,4.01
2023-02-14T14:21:32.105Z,4.03
2023-02-14T14:24:27.916Z,3.96
2023-02-14T14:27:14.202Z,4.04
2023-02-14T14:29:48.309Z,4.09
2023-02-14T14:32:21.457Z,4.13
2023-02-14T14:34:53.118Z,4.09
2023-02-14T14:37:22.981Z,4.09
2023-02-14T14:39:55.069Z,4.14
2023-02-14T14:42:23.459Z,4.09
2023-02-14T14:44:53.463Z,4.07
2023-02-14T14:47:25.576Z,4.00
2023-02-14T14:49:59.811Z,3.98
2023-02-14T14:52:34.052Z,3.95
2023-02-14T14:55:01.300Z,4.02
2023-02-14T14:57:27.999Z,3.95
2023-02-14T15:00:14.056Z,3.93
2023-02-14T15:02:40.779Z,4.00
2023-02-14T15:05:14.243Z,4.02
2023-02-14T15:07:41.921Z,4.08
2023-02-14T15:10:23.327Z,4.04
2023-02-14T15:13:14.184Z,4.14
2023-02-14T15:15:41.603Z,4.09
2023-02-14T15:18:08.592Z,4.05
2023-02-14T15:20:36.832Z,4.05
2023-02-14T15:23:04.788Z,4.06
2023-02-14T15:25:33.598Z,3.98
2023-02-14T15:28:00.748Z,4.03
2023-02-14T15:30:37.935Z,3.96
2023-02-14T15:33:06.129Z,3.89
2023-02-14T15:35:34.987Z,3.96
2023-02-14T15:38:05.073Z,3.91
2023-02-14T15:40:33.823Z,3.88
2023-02-14T15:43:18.765Z,3.89
2023-02-14T15:45:47.771Z,3.86
2023-02-14T15:48:24.547Z,3.90
2023-02-14T15:50:53.051Z,3.77
2023-02-14T15:53:19.740Z,3.83
2023-02-14T15:55:49.603Z,3.82
2023-02-14T15:58:22.847Z,3.79
2023-02-14T16:00:49.497Z,3.77
2023-02-14T16:03:37.015Z,3.80
2023-02-14T16:06:04.510Z,3.81
2023-02-14T16:08:36.741Z,3.89
2023-02-14T16:11:05.914Z,3.85
2023-02-14T16:13:37.258Z,3.85
2023-02-14T16:16:09.366Z,3.87
2023-02-14T16:18:47.714Z,3.83
2023-02-14T16:21:30.378Z,3.82
2023-02-14T16:24:10.615Z,3.75
2023-02-14T16:26:42.388Z,3.74
2023-02-14T16:29:11.627Z,3.74
2023-02-14T16:34:42.197Z,3.62
2023-02-14T16:37:19.229Z,3.65
2023-02-14T16:39:45.972Z,3.67
2023-02-14T16:42:16.920Z,3.77
2023-02-14T16:44:45.459Z,3.70
2023-02-14T16:47:13.675Z,3.68
2023-02-14T16:49:40.783Z,3.68
2023-02-14T16:52:13.237Z,3.58
2023-02-14T16:54:40.212Z,3.58
2023-02-14T16:57:07.520Z,3.50
2023-02-14T16:59:34.246Z,3.54
2023-02-14T17:02:02.157Z,3.59
2023-02-14T17:04:28.860Z,3.55
2023-02-14T17:09:27.817Z,3.47
2023-02-14T17:11:58.111Z,3.57
2023-02-14T17:14:27.665Z,3.44
2023-02-14T17:16:55.370Z,3.47
2023-02-14T17:19:22.292Z,3.43
2023-02-14T17:21:49.057Z,3.48
2023-02-14T17:24:15.922Z,3.40
2023-02-14T17:26:42.695Z,3.41
2023-02-14T17:29:09.356Z,3.45
2023-02-14T17:31:36.322Z,3.45
2023-02-14T17:34:03.114Z,3.46
2023-02-14T17:36:30.301Z,3.52
2023-02-14T17:38:57.106Z,3.53
2023-02-14T17:41:25.674Z,3.44
2023-02-14T17:43:54.752Z,3.40
2023-02-14T17:46:21.956Z,3.42
2023-02-14T17:48:49.579Z,3.37
2023-02-14T17:51:18.019Z,3.29
2023-02-14T17:53:44.869Z,3.33
2023-02-14T17:56:17.870Z,3.39
2023-02-14T17:58:47.540Z,3.42
2023-02-14T18:01:16.146Z,3.43
2023-02-14T18:03:43.009Z,3.41
2023-02-14T18:06:11.313Z,3.40
2023-02-14T18:08:46.181Z,3.39
2023-02-14T18:11:13.175Z,3.47
2023-02-14T18:13:40.119Z,3.44
2023-02-14T18:16:12.080Z,3.47
2023-02-14T18:18:39.003Z,3.42
2023-02-14T18:21:08.037Z,3.41
2023-02-14T18:23:34.799Z,3.50
2023-02-14T18:26:06.880Z,3.54
2023-02-14T18:28:34.723Z,3.50
2023-02-14T18:31:09.640Z,3.38
2023-02-14T18:33:36.912Z,3.50
2023-02-14T18:36:13.832Z,3.51
2023-02-14T18:38:42.671Z,3.53
2023-02-14T18:41:12.976Z,3.44
2023-02-14T18:43:41.156Z,3.46
2023-02-14T18:46:10.437Z,3.51
2023-02-14T18:48:37.509Z,3.55
2023-02-14T18:51:08.745Z,3.56
2023-02-14T18:53:39.224Z,3.53
2023-02-14T18:56:17.251Z,3.44
2023-02-14T18:58:50.611Z,3.52
2023-02-14T19:01:18.102Z,3.37
2023-02-14T19:03:45.531Z,3.45
2023-02-14T19:06:12.832Z,3.50
2023-02-14T19:08:40.687Z,3.48
2023-02-14T19:11:18.595Z,3.42
2023-02-14T19:13:48.758Z,3.42
2023-02-14T19:16:18.238Z,3.47
2023-02-14T19:18:45.505Z,3.57
2023-02-14T19:21:17.765Z,3.59
2023-02-14T19:23:44.580Z,3.56
2023-02-14T19:26:16.878Z,3.48
2023-02-14T19:28:44.972Z,3.47
2023-02-14T19:31:12.114Z,3.46
2023-02-14T19:33:43.807Z,3.28
2023-02-14T19:36:13.209Z,3.35
2023-02-14T19:38:41.555Z,3.32
2023-02-14T19:41:31.628Z,3.06
2023-02-14T19:44:00.523Z,3.17
2023-02-14T19:46:28.396Z,3.22
2023-02-14T19:48:56.221Z,3.18
2023-02-14T19:51:25.748Z,3.19
2023-02-14T19:53:53.964Z,3.25
2023-02-14T19:56:28.878Z,3.23
2023-02-14T19:58:58.687Z,3.23
2023-02-14T20:01:37.605Z,3.31
2023-02-14T20:04:06.076Z,3.22
2023-02-14T20:06:33.137Z,3.16
2023-02-14T20:09:00.072Z,3.12
2023-02-14T20:11:30.942Z,3.25
2023-02-14T20:13:58.444Z,3.26
2023-02-14T20:16:26.584Z,3.29
2023-02-14T20:18:53.782Z,3.33
2023-02-14T20:21:28.432Z,3.35
2023-02-14T20:24:00.813Z,3.31
2023-02-14T20:26:28.810Z,3.29
2023-02-14T20:28:55.572Z,3.26
2023-02-14T20:31:22.550Z,3.34
2023-02-14T20:33:52.843Z,3.34
2023-02-14T20:36:20.245Z,3.30
2023-02-14T20:38:47.404Z,3.33
2023-02-14T20:41:16.412Z,3.27
2023-02-14T20:43:43.137Z,3.23
2023-02-14T20:46:09.844Z,3.26
2023-02-14T20:48:36.697Z,3.23
2023-02-14T20:51:13.994Z,3.22
2023-02-14T20:53:41.014Z,3.31
2023-02-14T20:56:08.560Z,3.23
2023-02-14T20:58:36.738Z,3.29
2023-02-14T21:01:17.517Z,3.20
2023-02-14T21:03:50.637Z,3.27
2023-02-14T21:06:17.759Z,3.15
2023-02-14T21:08:45.034Z,3.19
2023-02-14T21:11:14.389Z,3.29
2023-02-14T21:13:41.049Z,3.17
2023-02-14T21:16:15.116Z,3.19
2023-02-14T21:18:43.380Z,3.17
2023-02-14T21:21:14.956Z,3.25
2023-02-14T21:23:42.115Z,3.29
2023-02-14T21:26:09.908Z,3.23
2023-02-14T21:28:36.743Z,3.35
2023-02-14T21:31:05.251Z,3.34
2023-02-14T21:33:32.890Z,3.32
2023-02-14T21:36:29.659Z,3.31
2023-02-14T21:38:58.471Z,3.34
2023-02-14T21:41:27.715Z,3.36
2023-02-14T21:43:56.454Z,3.35
2023-02-14T21:46:27.461Z,3.39
2023-02-14T21:49:13.744Z,3.33
2023-02-14T21:51:40.721Z,3.38
2023-02-14T21:54:07.580Z,3.34
2023-02-14T21:56:35.165Z,3.39
2023-02-14T21:59:01.988Z,3.42
2023-02-14T22:01:33.932Z,3.34
2023-02-14T22:04:01.474Z,3.36
2023-02-14T22:06:28.600Z,3.30
2023-02-14T22:08:57.158Z,3.32
2023-02-14T22:11:24.840Z,3.27
2023-02-14T22:13:51.591Z,3.28
2023-02-14T22:16:19.912Z,3.31
2023-02-14T22:18:49.476Z,3.25
2023-02-14T22:21:18.888Z,3.15
2023-02-14T22:23:45.656Z,3.16
2023-02-14T22:26:30.018Z,3.17
2023-02-14T22:28:59.238Z,3.24
2023-02-14T22:31:28.523Z,3.33
2023-02-14T22:33:55.350Z,3.32
2023-02-14T22:36:22.155Z,3.22
2023-02-14T22:38:49.138Z,3.20
2023-02-14T22:41:20.920Z,3.28
2023-02-14T22:43:47.985Z,3.29
2023-02-14T22:46:19.375Z,3.34
2023-02-14T22:48:47.252Z,3.35
2023-02-14T22:51:24.099Z,3.36
2023-02-14T22:53:52.700Z,3.41
2023-02-14T22:56:29.496Z,3.46
2023-02-14T22:59:01.231Z,3.49
2023-02-14T23:01:28.340Z,3.52
2023-02-14T23:03:56.801Z,3.53
2023-02-14T23:06:25.059Z,3.51
2023-02-14T23:08:52.425Z,3.52
2023-02-14T23:11:22.578Z,3.53
2023-02-14T23:14:08.130Z,3.53
2023-02-14T23:16:53.738Z,3.51
2023-02-14T23:19:46.601Z,3.52
2023-02-14T23:22:24.314Z,3.53
2023-02-14T23:24:53.717Z,3.56
2023-02-14T23:27:41.272Z,3.47
2023-02-14T23:30:10.646Z,3.55
2023-02-14T23:32:37.502Z,3.61
2023-02-14T23:35:04.474Z,3.60
2023-02-14T23:37:31.167Z,3.56
2023-02-14T23:39:58.090Z,3.55
2023-02-14T23:42:24.880Z,3.46
2023-02-14T23:44:51.863Z,3.47
2023-02-14T23:47:18.945Z,3.49
2023-02-14T23:49:46.086Z,3.48
2023-02-14T23:52:13.800Z,3.42
2023-02-14T23:54:40.755Z,3.43
2023-02-14T23:57:08.108Z,3.49
2023-02-14T23:59:34.941Z,3.47
